Time;durP1;ratioP1;P1;durP2;ratioP2;P2;SDS_P1;SDS_P2;PMS_P1;PMS_P2;Temp;Humidity;BMP_temperature;BMP_pressure;BME280_temperature;BME280_humidity;BME280_pressure;Samples;Min_cycle;Max_cycle;Signal;HPM_P1;HPM_P2
2023/02/27 00:01:08;;;;;;;6.70;2.88;;;;;;;;;;5055602;28;20082;-80
2023/02/27 00:03:34;;;;;;;7.55;3.38;;;;;;;;;;5024603;28;20033;-79
2023/02/27 00:06:00;;;;;;;7.50;3.30;;;;;;;;;;5018730;28;20499;-81
2023/02/27 00:08:26;;;;;;;7.45;3.30;;;;;;;;;;5038783;28;20026;-81
2023/02/27 00:10:52;;;;;;;9.82;3.65;;;;;;;;;;5062563;28;20036;-79
2023/02/27 00:13:19;;;;;;;7.13;3.58;;;;;;;;;;5046440;28;20059;-80
2023/02/27 00:15:46;;;;;;;6.10;2.80;;;;;;;;;;5075189;28;20021;-80
2023/02/27 00:18:12;;;;;;;7.28;3.47;;;;;;;;;;5064819;28;20136;-79
2023/02/27 00:20:38;;;;;;;9.00;3.78;;;;;;;;;;5031324;28;20265;-79
2023/02/27 00:23:08;;;;;;;6.47;2.97;;;;;;;;;;5032748;28;20021;-80
2023/02/27 00:25:34;;;;;;;8.38;3.25;;;;;;;;;;5043260;28;20025;-80
2023/02/27 00:28:00;;;;;;;6.07;3.28;;;;;;;;;;5042233;28;20051;-80
2023/02/27 00:30:27;;;;;;;8.32;3.60;;;;;;;;;;5053850;28;20386;-80
2023/02/27 00:32:53;;;;;;;7.40;3.08;;;;;;;;;;5044908;28;20400;-80
2023/02/27 00:35:19;;;;;;;7.25;3.70;;;;;;;;;;5033776;28;20438;-80
2023/02/27 00:37:45;;;;;;;8.15;3.65;;;;;;;;;;5020400;28;20447;-81
2023/02/27 00:40:12;;;;;;;6.57;3.30;;;;;;;;;;5035874;28;20119;-80
2023/02/27 00:42:38;;;;;;;6.05;2.95;;;;;;;;;;5036016;28;20033;-78
2023/02/27 00:45:04;;;;;;;7.25;3.08;;;;;;;;;;5046794;28;20029;-81
2023/02/27 00:47:30;;;;;;;6.85;2.80;;;;;;;;;;5018136;28;20045;-81
2023/02/27 00:49:56;;;;;;;6.78;3.30;;;;;;;;;;5069258;28;20070;-80
2023/02/27 00:52:22;;;;;;;8.48;3.20;;;;;;;;;;5034665;28;20067;-79
2023/02/27 00:54:48;;;;;;;6.63;2.97;;;;;;;;;;5046694;28;20028;-81
2023/02/27 00:57:14;;;;;;;7.90;3.42;;;;;;;;;;5053867;28;20052;-81
2023/02/27 00:59:40;;;;;;;7.40;3.00;;;;;;;;;;5053895;28;20041;-79
2023/02/27 01:02:06;;;;;;;6.18;2.83;;;;;;;;;;5045754;28;20025;-81
2023/02/27 01:04:33;;;;;;;6.30;2.70;;;;;;;;;;5016218;28;20443;-81
2023/02/27 01:06:59;;;;;;;7.13;2.97;;;;;;;;;;5039814;28;20041;-80
2023/02/27 01:09:25;;;;;;;7.65;3.35;;;;;;;;;;5038759;28;20025;-81
2023/02/27 01:11:51;;;;;;;5.50;2.72;;;;;;;;;;5035472;28;20041;-79
2023/02/27 01:14:17;;;;;;;6.57;2.72;;;;;;;;;;5036561;28;20029;-80
2023/02/27 01:16:43;;;;;;;7.78;3.30;;;;;;;;;;5053019;28;20074;-81
2023/02/27 01:19:09;;;;;;;5.35;2.63;;;;;;;;;;5072105;28;20073;-81
2023/02/27 01:21:35;;;;;;;5.70;2.83;;;;;;;;;;5073399;28;20059;-80
2023/02/27 01:24:01;;;;;;;6.43;3.00;;;;;;;;;;5030379;28;20033;-80
2023/02/27 01:26:28;;;;;;;7.88;3.03;;;;;;;;;;5036061;28;20445;-81
2023/02/27 01:28:54;;;;;;;5.68;2.75;;;;;;;;;;5057217;28;20024;-80
2023/02/27 01:31:20;;;;;;;6.63;2.78;;;;;;;;;;5047137;28;20485;-80
2023/02/27 01:33:47;;;;;;;6.90;3.00;;;;;;;;;;5044949;28;20064;-79
2023/02/27 01:36:14;;;;;;;7.70;3.10;;;;;;;;;;5057632;28;20021;-81
2023/02/27 01:38:40;;;;;;;5.45;2.30;;;;;;;;;;5050329;28;20025;-80
2023/02/27 01:41:06;;;;;;;5.10;2.63;;;;;;;;;;5039646;28;20446;-80
2023/02/27 01:43:33;;;;;;;8.15;3.00;;;;;;;;;;5056780;28;20119;-80
2023/02/27 01:45:59;;;;;;;5.88;2.83;;;;;;;;;;5077075;28;20029;-81
2023/02/27 01:48:33;;;;;;;6.32;3.25;;;;;;;;;;5064288;28;20029;-82
2023/02/27 01:51:04;;;;;;;7.85;2.60;;;;;;;;;;5058167;28;20124;-81
2023/02/27 01:53:32;;;;;;;6.75;2.72;;;;;;;;;;5074117;28;20027;-81
2023/02/27 01:56:00;;;;;;;8.50;3.00;;;;;;;;;;5071305;28;20017;-80
2023/02/27 01:58:26;;;;;;;6.20;2.78;;;;;;;;;;5066489;28;20055;-80
2023/02/27 02:00:52;;;;;;;7.95;3.00;;;;;;;;;;5044643;28;20036;-81
2023/02/27 02:03:27;;;;;;;5.22;1.98;;;;;;;;;;5040624;28;20055;-80
2023/02/27 02:05:55;;;;;;;5.15;2.47;;;;;;;;;;5044876;28;20085;-82
2023/02/27 02:08:22;;;;;;;6.10;3.08;;;;;;;;;;5054756;28;20017;-80
2023/02/27 02:10:50;;;;;;;4.65;2.30;;;;;;;;;;5037478;28;20040;-80
2023/02/27 02:13:17;;;;;;;5.78;2.55;;;;;;;;;;5061902;28;20017;-79
2023/02/27 02:15:47;;;;;;;5.45;2.85;;;;;;;;;;5076515;28;20024;-82
2023/02/27 02:18:34;;;;;;;5.30;2.72;;;;;;;;;;5051257;28;20022;-80
2023/02/27 02:21:29;;;;;;;7.95;3.28;;;;;;;;;;5058358;28;20017;-81
2023/02/27 02:24:17;;;;;;;5.97;2.53;;;;;;;;;;4983436;28;20039;-80
2023/02/27 02:26:51;;;;;;;7.18;2.83;;;;;;;;;;5045729;28;20078;-80
2023/02/27 02:29:32;;;;;;;5.20;2.22;;;;;;;;;;5057114;28;20029;-82
2023/02/27 02:32:14;;;;;;;6.47;2.75;;;;;;;;;;5056536;28;20034;-81
2023/02/27 02:34:58;;;;;;;5.90;2.83;;;;;;;;;;5057772;28;20029;-80
2023/02/27 02:37:25;;;;;;;5.90;2.63;;;;;;;;;;5050476;28;20102;-79
2023/02/27 02:40:17;;;;;;;5.68;2.60;;;;;;;;;;5058798;28;20044;-81
2023/02/27 02:43:02;;;;;;;7.53;2.93;;;;;;;;;;5014090;28;20038;-80
2023/02/27 02:45:38;;;;;;;5.10;2.33;;;;;;;;;;5051307;28;20271;-80
2023/02/27 02:48:18;;;;;;;6.22;2.45;;;;;;;;;;5029072;28;20049;-83
2023/02/27 02:50:48;;;;;;;7.30;2.63;;;;;;;;;;5035884;28;20109;-82
2023/02/27 02:53:14;;;;;;;6.38;2.83;;;;;;;;;;5033951;28;20029;-82
2023/02/27 02:55:48;;;;;;;5.05;2.47;;;;;;;;;;5056026;28;20472;-80
2023/02/27 02:58:20;;;;;;;5.72;2.72;;;;;;;;;;5023267;28;20017;-79
2023/02/27 03:00:52;;;;;;;6.50;2.75;;;;;;;;;;5037245;28;20481;-80
2023/02/27 03:03:22;;;;;;;6.78;2.80;;;;;;;;;;5055735;28;20020;-78
2023/02/27 03:05:50;;;;;;;7.93;2.65;;;;;;;;;;5056022;28;20035;-81
2023/02/27 03:08:24;;;;;;;6.60;2.30;;;;;;;;;;5039739;28;20036;-79
2023/02/27 03:10:56;;;;;;;7.68;3.13;;;;;;;;;;5042022;28;20076;-80
2023/02/27 03:13:29;;;;;;;6.28;2.53;;;;;;;;;;5019568;28;20029;-78
2023/02/27 03:15:58;;;;;;;6.85;2.75;;;;;;;;;;5038013;28;20024;-79
2023/02/27 03:18:26;;;;;;;6.68;2.45;;;;;;;;;;5037411;28;20040;-78
2023/02/27 03:20:54;;;;;;;5.65;2.67;;;;;;;;;;5035837;28;20025;-80
2023/02/27 03:23:26;;;;;;;8.35;2.90;;;;;;;;;;5053627;28;20025;-80
2023/02/27 03:25:53;;;;;;;7.20;2.50;;;;;;;;;;5045694;28;20487;-78
2023/02/27 03:28:23;;;;;;;5.93;2.55;;;;;;;;;;5076941;28;20035;-79
2023/02/27 03:30:52;;;;;;;6.93;2.75;;;;;;;;;;5076570;28;20037;-80
2023/02/27 03:33:24;;;;;;;5.00;2.03;;;;;;;;;;5037551;28;20111;-79
2023/02/27 03:36:04;;;;;;;7.35;2.83;;;;;;;;;;5055087;28;20025;-80
2023/02/27 03:38:30;;;;;;;5.10;2.35;;;;;;;;;;5042911;28;20457;-81
2023/02/27 03:41:13;;;;;;;6.28;2.28;;;;;;;;;;5053879;28;20083;-80
2023/02/27 03:43:42;;;;;;;7.05;2.63;;;;;;;;;;5055183;28;20059;-80
2023/02/27 03:46:11;;;;;;;8.05;2.80;;;;;;;;;;5041257;28;20072;-81
2023/02/27 03:48:37;;;;;;;5.18;2.40;;;;;;;;;;5038461;28;20132;-81
2023/02/27 03:51:03;;;;;;;4.93;2.58;;;;;;;;;;5053930;28;20029;-80
2023/02/27 03:53:29;;;;;;;6.10;2.80;;;;;;;;;;5037985;28;20037;-81
2023/02/27 03:55:57;;;;;;;6.38;2.60;;;;;;;;;;5057230;28;20071;-80
2023/02/27 03:58:23;;;;;;;5.18;2.63;;;;;;;;;;5036927;28;20259;-79
2023/02/27 04:00:49;;;;;;;8.30;2.92;;;;;;;;;;5036705;28;20482;-79
2023/02/27 04:03:16;;;;;;;8.52;2.25;;;;;;;;;;5027415;28;20026;-79
2023/02/27 04:05:42;;;;;;;5.45;3.08;;;;;;;;;;5032164;28;20089;-77
2023/02/27 04:08:11;;;;;;;5.65;2.22;;;;;;;;;;5018835;28;20075;-78
2023/02/27 04:10:58;;;;;;;5.80;2.60;;;;;;;;;;5035044;28;20103;-80
2023/02/27 04:13:33;;;;;;;4.65;2.30;;;;;;;;;;5043346;28;20088;-81
2023/02/27 04:16:14;;;;;;;6.22;2.13;;;;;;;;;;5035924;28;20064;-80
2023/02/27 04:18:40;;;;;;;6.82;2.30;;;;;;;;;;5062951;28;20032;-81
2023/02/27 04:21:32;;;;;;;6.63;2.25;;;;;;;;;;5044375;28;20107;-82
2023/02/27 04:24:01;;;;;;;5.47;2.60;;;;;;;;;;4975005;28;20081;-80
2023/02/27 04:26:31;;;;;;;6.88;2.33;;;;;;;;;;4971255;28;20085;-82
2023/02/27 04:28:57;;;;;;;4.30;1.80;;;;;;;;;;4954320;28;20043;-80
2023/02/27 04:31:29;;;;;;;4.65;2.25;;;;;;;;;;4953914;28;20127;-80
2023/02/27 04:34:04;;;;;;;6.60;2.78;;;;;;;;;;4971879;28;20503;-79
2023/02/27 04:36:41;;;;;;;6.40;2.58;;;;;;;;;;4969802;28;20037;-82
2023/02/27 04:39:08;;;;;;;5.18;2.17;;;;;;;;;;4954121;28;20070;-80
2023/02/27 04:41:34;;;;;;;5.47;2.33;;;;;;;;;;4968252;28;20379;-81
2023/02/27 04:44:02;;;;;;;7.72;2.78;;;;;;;;;;4957524;28;20035;-81
2023/02/27 04:46:29;;;;;;;4.93;2.20;;;;;;;;;;4956273;28;21876;-79
2023/02/27 04:49:00;;;;;;;5.13;2.20;;;;;;;;;;4973464;28;20713;-80
2023/02/27 04:51:31;;;;;;;6.88;2.60;;;;;;;;;;4956807;28;20030;-81
2023/02/27 04:54:09;;;;;;;6.05;2.35;;;;;;;;;;4957410;28;20034;-81
2023/02/27 04:56:37;;;;;;;5.75;2.17;;;;;;;;;;4960407;28;20037;-82
2023/02/27 04:59:07;;;;;;;5.68;2.00;;;;;;;;;;4956983;28;20033;-79
2023/02/27 05:01:40;;;;;;;4.63;2.20;;;;;;;;;;5025320;28;20128;-79
2023/02/27 05:04:08;;;;;;;5.07;2.33;;;;;;;;;;5035914;28;20478;-79
2023/02/27 05:06:35;;;;;;;5.65;2.20;;;;;;;;;;5020813;28;20041;-80
2023/02/27 05:09:21;;;;;;;5.13;2.22;;;;;;;;;;5037761;28;20059;-82
2023/02/27 05:11:51;;;;;;;5.00;2.15;;;;;;;;;;5018281;28;20067;-81
2023/02/27 05:14:22;;;;;;;3.95;1.83;;;;;;;;;;5057881;28;20040;-80
2023/02/27 05:17:14;;;;;;;8.82;2.47;;;;;;;;;;5057781;28;20021;-80
2023/02/27 05:19:41;;;;;;;7.38;2.10;;;;;;;;;;5036503;28;20037;-80
2023/02/27 05:22:07;;;;;;;6.60;1.80;;;;;;;;;;5054974;28;20032;-81
2023/02/27 05:24:50;;;;;;;5.13;2.25;;;;;;;;;;5036026;28;20031;-81
2023/02/27 05:27:19;;;;;;;5.72;2.50;;;;;;;;;;5037697;28;20030;-82
2023/02/27 05:29:53;;;;;;;4.38;2.08;;;;;;;;;;5026725;28;20084;-80
2023/02/27 05:32:27;;;;;;;4.88;2.00;;;;;;;;;;5047481;28;20108;-81
2023/02/27 05:35:08;;;;;;;5.85;2.22;;;;;;;;;;5022349;28;20025;-81
2023/02/27 05:37:38;;;;;;;4.80;2.08;;;;;;;;;;5066831;28;20021;-81
2023/02/27 05:40:07;;;;;;;5.93;2.50;;;;;;;;;;5056664;28;20028;-82
2023/02/27 05:42:36;;;;;;;5.38;2.22;;;;;;;;;;5023137;28;20033;-82
2023/02/27 05:45:06;;;;;;;6.63;2.42;;;;;;;;;;5055804;28;20075;-80
2023/02/27 05:47:35;;;;;;;4.53;1.95;;;;;;;;;;5038832;28;20060;-80
2023/02/27 05:50:10;;;;;;;4.50;1.90;;;;;;;;;;5051663;28;20495;-81
2023/02/27 05:52:37;;;;;;;5.38;2.47;;;;;;;;;;5057813;28;20025;-80
2023/02/27 05:55:22;;;;;;;4.60;1.92;;;;;;;;;;5051386;28;20775;-79
2023/02/27 05:57:53;;;;;;;5.57;2.20;;;;;;;;;;5034845;28;20026;-82
2023/02/27 06:00:21;;;;;;;5.50;2.13;;;;;;;;;;5057580;28;20025;-81
2023/02/27 06:02:47;;;;;;;4.05;2.05;;;;;;;;;;5050448;28;20060;-78
2023/02/27 06:05:14;;;;;;;4.90;2.15;;;;;;;;;;5033986;28;20021;-78
2023/02/27 06:07:40;;;;;;;6.00;1.92;;;;;;;;;;5059088;28;20036;-79
2023/02/27 06:10:06;;;;;;;6.93;2.53;;;;;;;;;;5042581;28;20029;-80
2023/02/27 06:12:32;;;;;;;5.10;2.70;;;;;;;;;;5036611;28;20035;-81
2023/02/27 06:14:58;;;;;;;5.78;2.70;;;;;;;;;;5032776;28;20104;-80
2023/02/27 06:17:24;;;;;;;5.60;2.58;;;;;;;;;;5049043;28;20037;-81
2023/02/27 06:19:50;;;;;;;5.00;2.30;;;;;;;;;;5032681;28;20117;-81
2023/02/27 06:22:16;;;;;;;6.15;2.50;;;;;;;;;;5051209;28;20017;-82
2023/02/27 06:24:42;;;;;;;6.60;2.22;;;;;;;;;;5064551;28;20371;-80
2023/02/27 06:27:08;;;;;;;5.53;2.60;;;;;;;;;;5062510;28;20315;-81
2023/02/27 06:29:34;;;;;;;6.30;2.63;;;;;;;;;;5051984;28;20037;-81
2023/02/27 06:32:00;;;;;;;5.75;2.40;;;;;;;;;;5038844;28;20025;-81
2023/02/27 06:34:27;;;;;;;5.35;2.20;;;;;;;;;;5059649;28;20479;-81
2023/02/27 06:36:53;;;;;;;6.22;2.45;;;;;;;;;;5054206;28;20021;-81
2023/02/27 06:39:19;;;;;;;5.88;2.60;;;;;;;;;;5036213;28;20027;-81
2023/02/27 06:41:45;;;;;;;5.65;2.75;;;;;;;;;;5058957;28;20102;-81
2023/02/27 06:44:11;;;;;;;4.78;2.20;;;;;;;;;;5029465;28;20021;-80
2023/02/27 06:46:37;;;;;;;6.82;2.47;;;;;;;;;;5038257;28;20502;-81
2023/02/27 06:49:03;;;;;;;7.50;2.97;;;;;;;;;;5055181;28;20029;-79
2023/02/27 06:51:30;;;;;;;7.72;2.35;;;;;;;;;;5038439;28;20147;-82
2023/02/27 06:53:56;;;;;;;6.13;2.75;;;;;;;;;;5050349;28;20025;-82
2023/02/27 06:56:22;;;;;;;5.80;2.40;;;;;;;;;;5041254;28;20032;-82
2023/02/27 06:58:48;;;;;;;4.65;2.38;;;;;;;;;;5044832;28;20116;-83
2023/02/27 07:01:14;;;;;;;8.48;2.97;;;;;;;;;;5035729;28;20487;-81
2023/02/27 07:03:40;;;;;;;5.38;2.50;;;;;;;;;;5033629;28;20029;-81
2023/02/27 07:06:06;;;;;;;5.22;2.55;;;;;;;;;;5054899;28;20033;-79
2023/02/27 07:08:32;;;;;;;6.07;2.83;;;;;;;;;;5066175;28;20518;-79
2023/02/27 07:10:58;;;;;;;6.60;2.80;;;;;;;;;;5053634;28;20410;-78
2023/02/27 07:13:24;;;;;;;5.43;2.30;;;;;;;;;;5044997;28;20031;-81
2023/02/27 07:15:51;;;;;;;5.63;2.08;;;;;;;;;;5053854;28;20130;-79
2023/02/27 07:18:18;;;;;;;4.88;2.22;;;;;;;;;;5041531;28;20042;-79
2023/02/27 07:20:44;;;;;;;5.38;2.50;;;;;;;;;;5056186;28;20040;-80
2023/02/27 07:23:10;;;;;;;6.13;2.28;;;;;;;;;;5052032;28;20074;-80
2023/02/27 07:25:36;;;;;;;6.43;2.50;;;;;;;;;;5031467;28;20022;-81
2023/02/27 07:28:03;;;;;;;5.53;2.63;;;;;;;;;;5029712;28;20077;-81
2023/02/27 07:30:29;;;;;;;5.55;2.50;;;;;;;;;;5058833;28;20112;-79
2023/02/27 07:32:55;;;;;;;7.70;2.58;;;;;;;;;;5056821;28;20104;-81
2023/02/27 07:35:21;;;;;;;5.53;2.28;;;;;;;;;;5060846;28;20021;-80
2023/02/27 07:37:47;;;;;;;5.82;2.40;;;;;;;;;;5054181;28;20101;-80
2023/02/27 07:40:14;;;;;;;5.82;2.72;;;;;;;;;;5051731;28;20104;-81
2023/02/27 07:42:40;;;;;;;5.57;2.72;;;;;;;;;;5053763;28;20514;-81
2023/02/27 07:45:06;;;;;;;5.28;2.40;;;;;;;;;;5035872;28;20021;-80
2023/02/27 07:47:32;;;;;;;7.03;2.90;;;;;;;;;;5050906;28;20449;-80
2023/02/27 07:49:58;;;;;;;5.65;2.50;;;;;;;;;;5009745;28;20495;-81
2023/02/27 07:52:25;;;;;;;5.28;2.33;;;;;;;;;;5034707;28;20057;-80
2023/02/27 07:54:51;;;;;;;5.10;2.33;;;;;;;;;;5026862;28;20022;-80
2023/02/27 07:57:17;;;;;;;4.93;2.40;;;;;;;;;;5036451;28;20029;-78
2023/02/27 07:59:43;;;;;;;5.85;2.40;;;;;;;;;;5013864;28;20026;-79
2023/02/27 08:02:10;;;;;;;5.57;2.47;;;;;;;;;;5009886;28;20105;-81
2023/02/27 08:04:36;;;;;;;6.65;2.60;;;;;;;;;;5034982;28;20045;-78
2023/02/27 08:07:02;;;;;;;5.65;2.40;;;;;;;;;;5047421;28;20036;-80
2023/02/27 08:09:29;;;;;;;6.40;2.42;;;;;;;;;;5032756;28;20291;-79
2023/02/27 08:11:55;;;;;;;5.65;2.38;;;;;;;;;;5015680;28;20117;-79
2023/02/27 08:14:21;;;;;;;3.60;1.60;;;;;;;;;;5016021;28;20089;-80
2023/02/27 08:16:47;;;;;;;4.97;1.92;;;;;;;;;;5014896;28;20013;-80
2023/02/27 08:19:14;;;;;;;4.07;1.83;;;;;;;;;;5032378;28;20021;-81
2023/02/27 08:21:40;;;;;;;3.97;1.88;;;;;;;;;;5028289;28;20053;-81
2023/02/27 08:24:06;;;;;;;9.27;4.65;;;;;;;;;;5053697;28;20017;-80
2023/02/27 08:26:32;;;;;;;14.88;6.13;;;;;;;;;;5035130;28;20071;-80
2023/02/27 08:28:58;;;;;;;14.32;4.20;;;;;;;;;;5024357;28;20035;-79
2023/02/27 08:31:24;;;;;;;6.30;2.42;;;;;;;;;;5019302;28;20032;-82
2023/02/27 08:33:50;;;;;;;6.57;2.45;;;;;;;;;;5033708;28;20033;-78
2023/02/27 08:36:16;;;;;;;7.07;3.22;;;;;;;;;;5005333;28;20048;-81
2023/02/27 08:38:42;;;;;;;4.63;1.92;;;;;;;;;;5003878;28;20034;-80
2023/02/27 08:41:08;;;;;;;8.60;2.78;;;;;;;;;;5036402;28;20033;-79
2023/02/27 08:43:34;;;;;;;6.43;2.83;;;;;;;;;;5023671;28;20071;-79
2023/02/27 08:46:00;;;;;;;12.32;4.75;;;;;;;;;;5020298;28;20030;-80
2023/02/27 08:48:27;;;;;;;10.90;4.80;;;;;;;;;;5034581;28;20022;-80
2023/02/27 08:50:53;;;;;;;6.93;3.15;;;;;;;;;;5039773;28;20029;-81
2023/02/27 08:53:19;;;;;;;5.78;2.58;;;;;;;;;;5057340;28;20021;-80
2023/02/27 08:55:48;;;;;;;4.38;1.83;;;;;;;;;;5056990;28;20047;-79
2023/02/27 08:58:14;;;;;;;6.80;3.58;;;;;;;;;;5068264;28;20108;-80
2023/02/27 09:00:40;;;;;;;6.20;2.13;;;;;;;;;;5056966;28;20056;-79
2023/02/27 09:03:06;;;;;;;5.05;2.33;;;;;;;;;;5056531;28;20048;-80
2023/02/27 09:05:34;;;;;;;4.38;2.28;;;;;;;;;;5046020;28;20527;-80
2023/02/27 09:08:00;;;;;;;10.63;3.55;;;;;;;;;;5048313;28;20098;-79
2023/02/27 09:10:26;;;;;;;11.77;3.95;;;;;;;;;;5056187;28;20025;-80
2023/02/27 09:12:52;;;;;;;7.03;3.13;;;;;;;;;;5038458;28;20487;-79
2023/02/27 09:15:19;;;;;;;4.30;1.83;;;;;;;;;;5037650;28;20059;-78
2023/02/27 09:17:45;;;;;;;7.53;2.13;;;;;;;;;;5047777;28;20033;-80
2023/02/27 09:20:11;;;;;;;6.00;2.13;;;;;;;;;;5038623;28;20029;-79
2023/02/27 09:22:38;;;;;;;3.70;1.95;;;;;;;;;;5056302;28;20029;-80
2023/02/27 09:25:04;;;;;;;5.43;2.35;;;;;;;;;;5056255;28;20029;-79
2023/02/27 09:27:30;;;;;;;3.88;2.17;;;;;;;;;;5057258;28;20052;-79
2023/02/27 09:29:56;;;;;;;5.63;2.42;;;;;;;;;;5050242;28;20096;-81
2023/02/27 09:32:23;;;;;;;5.72;2.67;;;;;;;;;;5058940;28;20036;-81
2023/02/27 09:34:49;;;;;;;7.10;2.55;;;;;;;;;;5056922;28;20053;-82
2023/02/27 09:37:15;;;;;;;5.80;2.80;;;;;;;;;;5039044;28;20025;-80
2023/02/27 09:39:42;;;;;;;6.03;2.65;;;;;;;;;;5038038;28;20025;-81
2023/02/27 09:42:14;;;;;;;6.75;2.65;;;;;;;;;;5059579;28;20075;-81
2023/02/27 09:44:48;;;;;;;5.70;2.53;;;;;;;;;;5030866;28;20096;-80
2023/02/27 09:47:20;;;;;;;5.72;2.55;;;;;;;;;;5041662;28;20445;-84
2023/02/27 09:49:52;;;;;;;4.70;2.17;;;;;;;;;;5056471;28;20120;-81
2023/02/27 09:52:18;;;;;;;5.18;2.30;;;;;;;;;;5038852;28;20513;-80
2023/02/27 09:54:44;;;;;;;5.97;2.45;;;;;;;;;;5039530;28;20048;-79
2023/02/27 09:57:15;;;;;;;6.00;2.90;;;;;;;;;;5019310;28;20079;-78
2023/02/27 09:59:45;;;;;;;6.68;3.05;;;;;;;;;;5059121;28;20029;-82
2023/02/27 10:02:23;;;;;;;6.30;3.00;;;;;;;;;;5058855;28;20105;-79
2023/02/27 10:04:49;;;;;;;5.95;2.58;;;;;;;;;;5059355;28;20031;-80
2023/02/27 10:07:25;;;;;;;6.97;3.08;;;;;;;;;;5053913;28;20021;-81
2023/02/27 10:09:51;;;;;;;7.53;3.85;;;;;;;;;;5042774;28;20027;-84
2023/02/27 10:12:31;;;;;;;6.20;3.13;;;;;;;;;;5049114;28;20085;-81
2023/02/27 10:14:59;;;;;;;8.05;2.67;;;;;;;;;;5046794;28;20025;-83
2023/02/27 10:17:30;;;;;;;7.38;2.92;;;;;;;;;;5037418;28;20116;-83
2023/02/27 10:19:58;;;;;;;7.53;2.83;;;;;;;;;;5066422;28;20036;-80
2023/02/27 10:22:35;;;;;;;4.40;2.30;;;;;;;;;;5057631;28;20356;-79
2023/02/27 10:25:12;;;;;;;5.32;2.88;;;;;;;;;;5057812;28;20107;-79
2023/02/27 10:27:39;;;;;;;5.95;2.40;;;;;;;;;;5073399;28;20025;-81
2023/02/27 10:30:25;;;;;;;4.93;2.33;;;;;;;;;;5044168;28;20501;-81
2023/02/27 10:32:54;;;;;;;5.18;2.53;;;;;;;;;;5057254;28;20029;-79
2023/02/27 10:35:20;;;;;;;5.57;2.70;;;;;;;;;;5057460;28;20032;-80
2023/02/27 10:37:48;;;;;;;5.13;2.35;;;;;;;;;;5058791;28;20021;-84
2023/02/27 10:40:15;;;;;;;5.00;2.47;;;;;;;;;;5039881;28;20229;-80
2023/02/27 10:42:41;;;;;;;5.10;2.78;;;;;;;;;;5061875;28;20029;-81
2023/02/27 10:45:13;;;;;;;6.15;2.40;;;;;;;;;;5047502;28;20025;-82
2023/02/27 10:47:39;;;;;;;6.05;2.80;;;;;;;;;;5057813;28;20533;-82
2023/02/27 10:50:19;;;;;;;6.95;2.58;;;;;;;;;;5028162;28;20033;-83
2023/02/27 10:52:52;;;;;;;5.20;2.63;;;;;;;;;;5019277;28;20403;-82
2023/02/27 10:55:21;;;;;;;6.72;3.25;;;;;;;;;;5054440;28;20391;-83
2023/02/27 10:57:48;;;;;;;7.13;2.97;;;;;;;;;;5056790;28;20445;-81
2023/02/27 11:00:30;;;;;;;5.93;3.10;;;;;;;;;;5039332;28;20329;-80
2023/02/27 11:02:57;;;;;;;5.38;3.05;;;;;;;;;;5038063;28;20193;-82
2023/02/27 11:05:49;;;;;;;5.78;2.72;;;;;;;;;;5056486;28;20039;-81
2023/02/27 11:08:23;;;;;;;6.93;3.83;;;;;;;;;;5058905;28;20044;-79
2023/02/27 11:11:09;;;;;;;6.82;3.33;;;;;;;;;;5063215;28;20029;-82
2023/02/27 11:13:37;;;;;;;4.70;2.80;;;;;;;;;;5043459;28;20957;-81
2023/02/27 11:16:17;;;;;;;5.88;3.13;;;;;;;;;;5055323;28;20021;-82
2023/02/27 11:18:47;;;;;;;6.65;2.92;;;;;;;;;;5036127;28;20026;-82
2023/02/27 11:21:20;;;;;;;5.55;2.85;;;;;;;;;;5036843;28;20029;-82
2023/02/27 11:24:06;;;;;;;5.18;2.92;;;;;;;;;;5018581;28;20373;-81
2023/02/27 11:26:32;;;;;;;5.53;2.95;;;;;;;;;;5018793;28;20514;-82
2023/02/27 11:29:07;;;;;;;5.75;2.80;;;;;;;;;;5037406;28;20018;-80
2023/02/27 11:31:35;;;;;;;6.13;3.22;;;;;;;;;;5021934;28;20457;-80
2023/02/27 11:34:03;;;;;;;6.45;4.00;;;;;;;;;;5035845;28;20411;-81
2023/02/27 11:36:43;;;;;;;7.78;3.55;;;;;;;;;;5036164;28;20023;-81
2023/02/27 11:39:20;;;;;;;7.30;2.92;;;;;;;;;;5020124;28;20037;-79
2023/02/27 11:41:47;;;;;;;6.05;3.17;;;;;;;;;;5018432;28;20487;-80
2023/02/27 11:44:16;;;;;;;6.47;3.30;;;;;;;;;;5034968;28;20033;-82
2023/02/27 11:46:43;;;;;;;4.93;2.63;;;;;;;;;;5020792;28;20053;-79
2023/02/27 11:49:26;;;;;;;6.75;3.42;;;;;;;;;;5036338;28;20026;-79
2023/02/27 11:51:53;;;;;;;6.78;3.10;;;;;;;;;;5035383;28;20072;-83
2023/02/27 11:54:35;;;;;;;6.00;3.00;;;;;;;;;;5050045;28;20028;-82
2023/02/27 11:57:05;;;;;;;5.55;3.03;;;;;;;;;;5036656;28;20146;-82
2023/02/27 11:59:48;;;;;;;5.68;3.13;;;;;;;;;;5036556;28;20051;-81
2023/02/27 12:02:20;;;;;;;8.07;3.53;;;;;;;;;;5054952;28;20032;-83
2023/02/27 12:04:49;;;;;;;7.13;3.00;;;;;;;;;;5034335;28;20036;-82
2023/02/27 12:07:18;;;;;;;5.00;2.67;;;;;;;;;;5035095;28;20025;-83
2023/02/27 12:09:56;;;;;;;6.38;3.15;;;;;;;;;;5034721;28;20025;-80
2023/02/27 12:12:42;;;;;;;6.35;3.35;;;;;;;;;;5054253;28;20072;-81
2023/02/27 12:15:24;;;;;;;6.00;3.00;;;;;;;;;;5036313;28;20021;-82
2023/02/27 12:17:52;;;;;;;5.75;3.22;;;;;;;;;;5054716;28;20111;-82
2023/02/27 12:20:22;;;;;;;5.25;2.80;;;;;;;;;;5029826;28;20018;-81
2023/02/27 12:22:49;;;;;;;5.28;2.90;;;;;;;;;;5043197;28;20028;-82
2023/02/27 12:25:21;;;;;;;5.68;2.80;;;;;;;;;;5064214;28;20028;-85
2023/02/27 12:27:47;;;;;;;6.40;2.90;;;;;;;;;;5037511;28;20112;-81
2023/02/27 12:30:25;;;;;;;7.60;2.97;;;;;;;;;;5029697;28;20502;-81
2023/02/27 12:33:00;;;;;;;5.60;3.22;;;;;;;;;;5035573;28;20029;-82
2023/02/27 12:35:32;;;;;;;5.85;3.22;;;;;;;;;;5017963;28;20133;-82
2023/02/27 12:37:58;;;;;;;6.47;3.30;;;;;;;;;;5050104;28;20023;-81
2023/02/27 12:40:44;;;;;;;6.03;3.17;;;;;;;;;;5036722;28;20021;-80
2023/02/27 12:43:30;;;;;;;5.90;3.42;;;;;;;;;;5053959;28;20112;-82
2023/02/27 12:46:15;;;;;;;6.00;2.70;;;;;;;;;;5054082;28;20390;-82
2023/02/27 12:49:00;;;;;;;9.57;4.50;;;;;;;;;;5054816;28;20056;-82
2023/02/27 12:51:41;;;;;;;6.53;3.05;;;;;;;;;;5066631;28;20036;-81
2023/02/27 12:54:26;;;;;;;6.20;3.50;;;;;;;;;;5055466;28;20025;-83
2023/02/27 12:56:52;;;;;;;7.28;3.90;;;;;;;;;;5056204;28;20025;-81
2023/02/27 12:59:24;;;;;;;7.53;4.03;;;;;;;;;;5067431;28;20025;-83
2023/02/27 13:02:00;;;;;;;5.15;2.90;;;;;;;;;;5016224;28;20033;-82
2023/02/27 13:04:44;;;;;;;5.88;2.88;;;;;;;;;;5016987;28;20112;-83
2023/02/27 13:07:29;;;;;;;5.75;3.20;;;;;;;;;;5045346;28;20078;-80
2023/02/27 13:10:00;;;;;;;6.95;3.50;;;;;;;;;;5073541;28;20053;-80
2023/02/27 13:12:26;;;;;;;6.82;3.65;;;;;;;;;;5055990;28;20032;-81
2023/02/27 13:14:58;;;;;;;6.32;3.10;;;;;;;;;;5063256;28;20027;-82
2023/02/27 13:17:42;;;;;;;6.55;3.00;;;;;;;;;;5037415;28;20096;-82
2023/02/27 13:20:08;;;;;;;7.40;2.95;;;;;;;;;;5038626;28;20035;-81
2023/02/27 13:22:43;;;;;;;7.40;3.67;;;;;;;;;;5041752;28;20093;-84
2023/02/27 13:25:15;;;;;;;5.45;2.90;;;;;;;;;;5029446;28;20031;-81
2023/02/27 13:27:48;;;;;;;6.45;3.45;;;;;;;;;;5044921;28;20041;-81
2023/02/27 13:30:25;;;;;;;4.68;2.35;;;;;;;;;;5053019;28;20067;-81
2023/02/27 13:33:11;;;;;;;5.60;2.58;;;;;;;;;;5049840;28;20036;-80
2023/02/27 13:35:50;;;;;;;4.82;2.58;;;;;;;;;;5033443;28;20044;-81
2023/02/27 13:38:34;;;;;;;5.90;2.83;;;;;;;;;;5057842;28;20017;-79
2023/02/27 13:41:23;;;;;;;5.72;2.63;;;;;;;;;;5044852;28;20025;-80
2023/02/27 13:43:56;;;;;;;5.00;2.60;;;;;;;;;;5037206;28;20119;-80
2023/02/27 13:46:22;;;;;;;;;;;;;;;;;;5063664;28;20099;-82
2023/02/27 13:48:50;;;;;;;5.80;2.78;;;;;;;;;;5062736;28;19909;-81
2023/02/27 13:51:35;;;;;;;5.53;2.90;;;;;;;;;;5043373;28;20486;-81
2023/02/27 13:54:16;;;;;;;6.78;2.58;;;;;;;;;;5056436;28;20339;-82
2023/02/27 13:56:49;;;;;;;6.82;3.22;;;;;;;;;;5054620;28;20017;-80
2023/02/27 13:59:18;;;;;;;8.27;2.92;;;;;;;;;;5053805;28;20028;-81
2023/02/27 14:01:50;;;;;;;6.13;2.88;;;;;;;;;;5059242;28;20049;-80
2023/02/27 14:04:17;;;;;;;6.57;3.30;;;;;;;;;;5034781;28;20034;-78
2023/02/27 14:06:45;;;;;;;5.65;2.88;;;;;;;;;;5053314;28;20029;-80
2023/02/27 14:09:12;;;;;;;6.05;3.10;;;;;;;;;;5037191;28;20029;-79
2023/02/27 14:11:38;;;;;;;5.55;2.95;;;;;;;;;;5054162;28;20486;-80
2023/02/27 14:14:27;;;;;;;5.45;3.03;;;;;;;;;;5036843;28;20025;-79
2023/02/27 14:16:54;;;;;;;5.70;2.50;;;;;;;;;;5054965;28;20037;-80
2023/02/27 14:19:23;;;;;;;4.53;2.20;;;;;;;;;;5051060;28;20021;-81
2023/02/27 14:21:52;;;;;;;7.13;2.55;;;;;;;;;;5051685;28;20033;-79
2023/02/27 14:24:19;;;;;;;7.65;2.88;;;;;;;;;;5026228;28;20479;-80
2023/02/27 14:26:45;;;;;;;4.45;2.38;;;;;;;;;;5034282;28;20033;-81
2023/02/27 14:29:19;;;;;;;7.38;2.60;;;;;;;;;;5057498;28;20041;-82
2023/02/27 14:31:45;;;;;;;5.60;2.50;;;;;;;;;;5037900;28;20064;-80
2023/02/27 14:34:14;;;;;;;6.50;3.15;;;;;;;;;;5069905;28;20032;-80
2023/02/27 14:36:53;;;;;;;5.40;2.50;;;;;;;;;;5052455;28;20094;-83
2023/02/27 14:39:22;;;;;;;6.82;2.50;;;;;;;;;;5035545;28;20024;-83
2023/02/27 14:41:53;;;;;;;4.93;2.22;;;;;;;;;;5033066;28;20499;-81
2023/02/27 14:44:20;;;;;;;6.82;3.30;;;;;;;;;;5037992;28;20033;-82
2023/02/27 14:46:47;;;;;;;5.13;2.42;;;;;;;;;;5037841;28;20468;-82
2023/02/27 14:49:27;;;;;;;5.38;2.80;;;;;;;;;;5062528;28;20037;-79
2023/02/27 14:51:53;;;;;;;5.47;2.75;;;;;;;;;;5034036;28;20030;-80
2023/02/27 14:54:24;;;;;;;4.93;2.53;;;;;;;;;;5023359;28;20043;-79
2023/02/27 14:56:57;;;;;;;7.30;2.95;;;;;;;;;;5054548;28;20037;-80
2023/02/27 14:59:26;;;;;;;6.55;2.72;;;;;;;;;;5054991;28;20043;-82
2023/02/27 15:01:56;;;;;;;5.82;2.88;;;;;;;;;;5056553;28;20025;-80